FIN96W EFHK-LPPT
Flight info
| Callsign | FIN96W |
|---|---|
| Flight time | 4h 7m |
| Altitude | 40000 |
| Route | EFHK/04R N0481F400 NUNT5C NUNTO Y367 OLPED DCT OBEVI DCT NISIX DCT TOKSI DCT DOSUR DCT EEL DCT GISEB DCT NIK DCT CIV/N0485F410 N872 MEDIL DCT KOVIN DCT NIDUV DCT KIHVI UN872 TERPO/N0460F350 UN872 ERIGA DCT FUJTI/N0477F410 DCT BAKUP DCT BATAX DCT INBOM INBO4B LPPT/20 |
| Aircraft | A359/H-SDE2E3GHIJ3J4J5LM1ORWXY/LB1D1 |
Departure
| Time | 2026-04-21 05:47 |
|---|---|
| Airport | Helsinki Vantaa Airport (EFHK) |
Arrival
| Time | 2026-04-21 09:54 |
|---|---|
| Airport | Lisbon Humberto Delgado Airport (LPPT) |
| Time | Latitude | Longitude | Altitude | Speed | Heading |
|---|---|---|---|---|---|
| 2026-04-21 05:17 | 60.31468 | 24.95604 | 168 ft | 0 kts | 136° |
| 2026-04-21 05:38 | 60.31475 | 24.95589 | 167 ft | 4 kts | 139° |
| 2026-04-21 05:38 | 60.31496 | 24.95557 | 167 ft | 4 kts | 153° |
| 2026-04-21 05:38 | 60.31518 | 24.95541 | 167 ft | 4 kts | 179° |
| 2026-04-21 05:39 | 60.31537 | 24.95546 | 167 ft | 4 kts | 221° |
| 2026-04-21 05:39 | 60.31541 | 24.95553 | 167 ft | 4 kts | 228° |
| 2026-04-21 05:42 | 60.31540 | 24.95551 | 167 ft | 1 kts | 228° |
| 2026-04-21 05:43 | 60.31524 | 24.95515 | 167 ft | 6 kts | 228° |
| 2026-04-21 05:43 | 60.31489 | 24.95436 | 167 ft | 9 kts | 228° |
| 2026-04-21 05:43 | 60.31447 | 24.95322 | 167 ft | 10 kts | 251° |
| 2026-04-21 05:43 | 60.31482 | 24.95210 | 168 ft | 11 kts | 315° |
| 2026-04-21 05:44 | 60.31514 | 24.95075 | 168 ft | 11 kts | 257° |
| 2026-04-21 05:44 | 60.31464 | 24.94939 | 167 ft | 13 kts | 227° |
| 2026-04-21 05:44 | 60.31396 | 24.94788 | 167 ft | 16 kts | 227° |
| 2026-04-21 05:44 | 60.31316 | 24.94614 | 168 ft | 18 kts | 227° |
| 2026-04-21 05:45 | 60.31227 | 24.94417 | 168 ft | 20 kts | 228° |
| 2026-04-21 05:45 | 60.31132 | 24.94203 | 168 ft | 22 kts | 228° |
| 2026-04-21 05:45 | 60.31052 | 24.94025 | 168 ft | 13 kts | 227° |
| 2026-04-21 05:45 | 60.30993 | 24.93895 | 167 ft | 13 kts | 230° |
| 2026-04-21 05:46 | 60.30992 | 24.93732 | 168 ft | 13 kts | 306° |
| 2026-04-21 05:46 | 60.31060 | 24.93599 | 168 ft | 15 kts | 320° |
| 2026-04-21 05:46 | 60.31133 | 24.93640 | 167 ft | 13 kts | 47° |
| 2026-04-21 05:46 | 60.31195 | 24.93778 | 168 ft | 14 kts | 47° |
| 2026-04-21 05:47 | 60.31332 | 24.94082 | 170 ft | 60 kts | 47° |
| 2026-04-21 05:47 | 60.31773 | 24.95053 | 170 ft | 126 kts | 47° |
| 2026-04-21 05:47 | 60.32489 | 24.96629 | 314 ft | 167 kts | 44° |
| 2026-04-21 05:47 | 60.33225 | 24.98226 | 1261 ft | 153 kts | 43° |
| 2026-04-21 05:48 | 60.33941 | 24.99780 | 2021 ft | 153 kts | 43° |
| 2026-04-21 05:48 | 60.34698 | 25.01452 | 2520 ft | 171 kts | 44° |
| 2026-04-21 05:48 | 60.35558 | 25.03312 | 2852 ft | 191 kts | 43° |
| 2026-04-21 05:48 | 60.36509 | 25.05399 | 3117 ft | 214 kts | 45° |
| 2026-04-21 05:49 | 60.37571 | 25.07747 | 3496 ft | 236 kts | 45° |
| 2026-04-21 05:49 | 60.38315 | 25.09406 | 3830 ft | 244 kts | 45° |
| 2026-04-21 05:49 | 60.40041 | 25.12351 | 4767 ft | 247 kts | 21° |
| 2026-04-21 05:49 | 60.41722 | 25.12982 | 5555 ft | 248 kts | 1° |
| 2026-04-21 05:50 | 60.43454 | 25.13031 | 6352 ft | 250 kts | 360° |
| 2026-04-21 05:50 | 60.44615 | 25.13039 | 6879 ft | 251 kts | 0° |
| 2026-04-21 05:50 | 60.46371 | 25.13047 | 7609 ft | 253 kts | 359° |
| 2026-04-21 05:50 | 60.48706 | 25.12241 | 8594 ft | 257 kts | 343° |
| 2026-04-21 05:51 | 60.49783 | 25.11216 | 9095 ft | 261 kts | 330° |
| 2026-04-21 05:51 | 60.51100 | 25.08623 | 9814 ft | 271 kts | 306° |
| 2026-04-21 05:51 | 60.51716 | 25.04940 | 10467 ft | 287 kts | 279° |
| 2026-04-21 05:51 | 60.51373 | 25.00799 | 10770 ft | 315 kts | 250° |
| 2026-04-21 05:52 | 60.50031 | 24.97104 | 11027 ft | 339 kts | 223° |
| 2026-04-21 05:52 | 60.47954 | 24.94574 | 11337 ft | 356 kts | 206° |
| 2026-04-21 05:52 | 60.45725 | 24.92227 | 11775 ft | 364 kts | 214° |
| 2026-04-21 05:52 | 60.43816 | 24.88956 | 12323 ft | 365 kts | 231° |
| 2026-04-21 05:53 | 60.42234 | 24.84905 | 12904 ft | 368 kts | 237° |
| 2026-04-21 05:53 | 60.40729 | 24.80676 | 13461 ft | 372 kts | 238° |
| 2026-04-21 05:53 | 60.39225 | 24.76381 | 14037 ft | 376 kts | 238° |
| 2026-04-21 05:53 | 60.37705 | 24.72025 | 14551 ft | 380 kts | 238° |
| 2026-04-21 05:54 | 60.36173 | 24.67641 | 15105 ft | 384 kts | 238° |
| 2026-04-21 05:54 | 60.34624 | 24.63214 | 15636 ft | 387 kts | 238° |
| 2026-04-21 05:54 | 60.33059 | 24.58752 | 16167 ft | 391 kts | 238° |
| 2026-04-21 05:54 | 60.31478 | 24.54245 | 16675 ft | 394 kts | 238° |
| 2026-04-21 05:55 | 60.29906 | 24.49772 | 17220 ft | 398 kts | 238° |
| 2026-04-21 05:55 | 60.28301 | 24.45219 | 17750 ft | 401 kts | 238° |
| 2026-04-21 05:55 | 60.26672 | 24.40607 | 18266 ft | 404 kts | 238° |
| 2026-04-21 05:55 | 60.25034 | 24.35978 | 18758 ft | 408 kts | 237° |
| 2026-04-21 05:56 | 60.23383 | 24.31319 | 19209 ft | 411 kts | 238° |
| 2026-04-21 05:56 | 60.21713 | 24.26620 | 19643 ft | 414 kts | 238° |
| 2026-04-21 05:56 | 60.20029 | 24.21886 | 20095 ft | 417 kts | 237° |
| 2026-04-21 05:56 | 60.18331 | 24.17124 | 20525 ft | 420 kts | 237° |
| 2026-04-21 05:57 | 60.16618 | 24.12329 | 20965 ft | 424 kts | 237° |
| 2026-04-21 05:57 | 60.14889 | 24.07503 | 21389 ft | 427 kts | 237° |
| 2026-04-21 05:57 | 60.13144 | 24.02639 | 21811 ft | 430 kts | 237° |
| 2026-04-21 05:57 | 60.11410 | 23.97815 | 22241 ft | 433 kts | 237° |
| 2026-04-21 05:58 | 60.09641 | 23.92891 | 22652 ft | 436 kts | 238° |
| 2026-04-21 05:58 | 60.08064 | 23.87715 | 23058 ft | 435 kts | 247° |
| 2026-04-21 05:58 | 60.06761 | 23.82217 | 23497 ft | 436 kts | 251° |
| 2026-04-21 05:58 | 60.05581 | 23.76593 | 23898 ft | 438 kts | 252° |
| 2026-04-21 05:59 | 60.04456 | 23.70921 | 24243 ft | 440 kts | 253° |
| 2026-04-21 05:59 | 60.03333 | 23.65189 | 24599 ft | 443 kts | 253° |
| 2026-04-21 05:59 | 60.02199 | 23.59457 | 24955 ft | 445 kts | 253° |
| 2026-04-21 06:00 | 59.99869 | 23.47964 | 25674 ft | 451 kts | 252° |
| 2026-04-21 06:00 | 59.98668 | 23.42155 | 26030 ft | 453 kts | 252° |
| 2026-04-21 06:00 | 59.97451 | 23.36308 | 26405 ft | 456 kts | 252° |
| 2026-04-21 06:00 | 59.96224 | 23.30445 | 26801 ft | 459 kts | 252° |
| 2026-04-21 06:01 | 59.94986 | 23.24546 | 27203 ft | 462 kts | 252° |
| 2026-04-21 06:01 | 59.93737 | 23.18612 | 27632 ft | 464 kts | 252° |
| 2026-04-21 06:01 | 59.92498 | 23.12731 | 28051 ft | 467 kts | 252° |
| 2026-04-21 06:01 | 59.91232 | 23.06745 | 28475 ft | 470 kts | 252° |
| 2026-04-21 06:02 | 59.89957 | 23.00728 | 28911 ft | 473 kts | 252° |
| 2026-04-21 06:02 | 59.88669 | 22.94652 | 29327 ft | 476 kts | 252° |
| 2026-04-21 06:02 | 59.87375 | 22.88572 | 29742 ft | 479 kts | 252° |
| 2026-04-21 06:02 | 59.86068 | 22.82451 | 30160 ft | 482 kts | 252° |
| 2026-04-21 06:03 | 59.84751 | 22.76308 | 30540 ft | 485 kts | 252° |
| 2026-04-21 06:03 | 59.83419 | 22.70111 | 30910 ft | 487 kts | 252° |
| 2026-04-21 06:03 | 59.82081 | 22.63910 | 31292 ft | 489 kts | 252° |
| 2026-04-21 06:03 | 59.80749 | 22.57749 | 31655 ft | 491 kts | 251° |
| 2026-04-21 06:04 | 59.79390 | 22.51480 | 32016 ft | 494 kts | 251° |
| 2026-04-21 06:04 | 59.78028 | 22.45219 | 32379 ft | 496 kts | 251° |
| 2026-04-21 06:04 | 59.76654 | 22.38919 | 32719 ft | 498 kts | 251° |
| 2026-04-21 06:04 | 59.75274 | 22.32610 | 33068 ft | 500 kts | 251° |
| 2026-04-21 06:05 | 59.73885 | 22.26279 | 33419 ft | 502 kts | 251° |
| 2026-04-21 06:05 | 59.72486 | 22.19926 | 33742 ft | 504 kts | 250° |
| 2026-04-21 06:05 | 59.71077 | 22.13541 | 34050 ft | 506 kts | 250° |
| 2026-04-21 06:05 | 59.69668 | 22.07151 | 34353 ft | 507 kts | 250° |
| 2026-04-21 06:06 | 59.68253 | 22.00727 | 34630 ft | 509 kts | 250° |
| 2026-04-21 06:06 | 59.66835 | 21.94293 | 34886 ft | 511 kts | 250° |
| 2026-04-21 06:06 | 59.65407 | 21.87831 | 35143 ft | 512 kts | 250° |
| 2026-04-21 06:06 | 59.63994 | 21.81466 | 35506 ft | 511 kts | 249° |
| 2026-04-21 06:07 | 59.62561 | 21.75035 | 35871 ft | 510 kts | 249° |
| 2026-04-21 06:07 | 59.61130 | 21.68634 | 36204 ft | 510 kts | 249° |
| 2026-04-21 06:07 | 59.59695 | 21.62234 | 36515 ft | 509 kts | 249° |
| 2026-04-21 06:07 | 59.58256 | 21.55834 | 36821 ft | 509 kts | 249° |
| 2026-04-21 06:08 | 59.56808 | 21.49445 | 37127 ft | 509 kts | 248° |
| 2026-04-21 06:08 | 59.55351 | 21.43077 | 37424 ft | 509 kts | 248° |
| 2026-04-21 06:08 | 59.53890 | 21.36726 | 37740 ft | 509 kts | 248° |
| 2026-04-21 06:08 | 59.52442 | 21.30456 | 38023 ft | 509 kts | 248° |
| 2026-04-21 06:09 | 59.50976 | 21.24120 | 38322 ft | 508 kts | 248° |
| 2026-04-21 06:09 | 59.49507 | 21.17788 | 38617 ft | 508 kts | 247° |
| 2026-04-21 06:09 | 59.48037 | 21.11463 | 38891 ft | 508 kts | 247° |
| 2026-04-21 06:09 | 59.46568 | 21.05161 | 39109 ft | 508 kts | 247° |
| 2026-04-21 06:10 | 59.45093 | 20.98848 | 39301 ft | 508 kts | 247° |
| 2026-04-21 06:10 | 59.43613 | 20.92532 | 39468 ft | 508 kts | 247° |
| 2026-04-21 06:10 | 59.42136 | 20.86219 | 39660 ft | 508 kts | 247° |
| 2026-04-21 06:10 | 59.40646 | 20.79903 | 39843 ft | 508 kts | 246° |
| 2026-04-21 06:11 | 59.39153 | 20.73611 | 40021 ft | 508 kts | 246° |
| 2026-04-21 06:11 | 59.37654 | 20.67321 | 40189 ft | 509 kts | 246° |
| 2026-04-21 06:11 | 59.36153 | 20.61036 | 40321 ft | 510 kts | 246° |
| 2026-04-21 06:12 | 59.33138 | 20.48458 | 40344 ft | 510 kts | 246° |
| 2026-04-21 06:12 | 59.30051 | 20.36061 | 40346 ft | 510 kts | 243° |
| 2026-04-21 06:13 | 59.26513 | 20.24000 | 40345 ft | 510 kts | 240° |
| 2026-04-21 06:13 | 59.22902 | 20.12049 | 40348 ft | 510 kts | 241° |
| 2026-04-21 06:14 | 59.19341 | 20.00061 | 40366 ft | 510 kts | 241° |
| 2026-04-21 06:14 | 59.15804 | 19.88047 | 40352 ft | 510 kts | 241° |
| 2026-04-21 06:15 | 59.12292 | 19.76137 | 40352 ft | 510 kts | 241° |
| 2026-04-21 06:15 | 59.08737 | 19.64153 | 40366 ft | 510 kts | 241° |
| 2026-04-21 06:16 | 59.05174 | 19.52214 | 40366 ft | 510 kts | 241° |
| 2026-04-21 06:16 | 59.01599 | 19.40299 | 40367 ft | 510 kts | 240° |
| 2026-04-21 06:17 | 58.98038 | 19.28493 | 40370 ft | 510 kts | 240° |
| 2026-04-21 06:17 | 58.94442 | 19.16628 | 40354 ft | 510 kts | 240° |
| 2026-04-21 06:18 | 58.90836 | 19.04792 | 40376 ft | 510 kts | 240° |
| 2026-04-21 06:18 | 58.87225 | 18.93001 | 40373 ft | 510 kts | 240° |
| 2026-04-21 06:19 | 58.83605 | 18.81239 | 40373 ft | 509 kts | 240° |
| 2026-04-21 06:19 | 58.79970 | 18.69489 | 40374 ft | 509 kts | 240° |
| 2026-04-21 06:20 | 58.76346 | 18.57830 | 40372 ft | 509 kts | 239° |
| 2026-04-21 06:20 | 58.72692 | 18.46136 | 40379 ft | 509 kts | 239° |
| 2026-04-21 06:21 | 58.69033 | 18.34482 | 40377 ft | 509 kts | 239° |
| 2026-04-21 06:21 | 58.65358 | 18.22834 | 40377 ft | 509 kts | 239° |
| 2026-04-21 06:22 | 58.61678 | 18.11230 | 40377 ft | 509 kts | 239° |
| 2026-04-21 06:22 | 58.57984 | 17.99641 | 40380 ft | 509 kts | 239° |
| 2026-04-21 06:23 | 58.54307 | 17.88159 | 40382 ft | 509 kts | 239° |
| 2026-04-21 06:23 | 58.50594 | 17.76622 | 40384 ft | 509 kts | 239° |
| 2026-04-21 06:24 | 58.46867 | 17.65099 | 40384 ft | 509 kts | 238° |
| 2026-04-21 06:24 | 58.43130 | 17.53602 | 40386 ft | 509 kts | 238° |
| 2026-04-21 06:25 | 58.39405 | 17.42194 | 40388 ft | 509 kts | 238° |
| 2026-04-21 06:25 | 58.35653 | 17.30761 | 40389 ft | 509 kts | 238° |
| 2026-04-21 06:26 | 58.31888 | 17.19345 | 40393 ft | 508 kts | 238° |
| 2026-04-21 06:26 | 58.28112 | 17.07949 | 40396 ft | 508 kts | 238° |
| 2026-04-21 06:27 | 58.24328 | 16.96582 | 40400 ft | 508 kts | 238° |
| 2026-04-21 06:27 | 58.20565 | 16.85335 | 40400 ft | 508 kts | 237° |
| 2026-04-21 06:28 | 58.16763 | 16.74023 | 40403 ft | 508 kts | 237° |
| 2026-04-21 06:28 | 58.12952 | 16.62739 | 40410 ft | 508 kts | 237° |
| 2026-04-21 06:29 | 58.09135 | 16.51493 | 40412 ft | 508 kts | 237° |
| 2026-04-21 06:29 | 58.05302 | 16.40248 | 40413 ft | 508 kts | 237° |
| 2026-04-21 06:30 | 58.01461 | 16.29039 | 40411 ft | 509 kts | 237° |
| 2026-04-21 06:30 | 57.97609 | 16.17848 | 40416 ft | 509 kts | 237° |
| 2026-04-21 06:31 | 57.93748 | 16.06681 | 40418 ft | 509 kts | 237° |
| 2026-04-21 06:31 | 57.89900 | 15.95608 | 40425 ft | 509 kts | 236° |
| 2026-04-21 06:32 | 57.86019 | 15.84489 | 40425 ft | 509 kts | 236° |
| 2026-04-21 06:32 | 57.82125 | 15.73386 | 40427 ft | 509 kts | 236° |
| 2026-04-21 06:33 | 57.78222 | 15.62308 | 40425 ft | 509 kts | 236° |
| 2026-04-21 06:33 | 57.74333 | 15.51317 | 40427 ft | 509 kts | 236° |
| 2026-04-21 06:34 | 57.70410 | 15.40285 | 40428 ft | 508 kts | 236° |
| 2026-04-21 06:34 | 57.66484 | 15.29296 | 40427 ft | 508 kts | 236° |
| 2026-04-21 06:35 | 57.62545 | 15.18318 | 40431 ft | 508 kts | 236° |
| 2026-04-21 06:35 | 57.58627 | 15.07453 | 40433 ft | 507 kts | 236° |
| 2026-04-21 06:36 | 57.54672 | 14.96532 | 40430 ft | 507 kts | 236° |
| 2026-04-21 06:36 | 57.50717 | 14.85659 | 40436 ft | 507 kts | 235° |
| 2026-04-21 06:37 | 57.46751 | 14.74806 | 40432 ft | 507 kts | 235° |
| 2026-04-21 06:37 | 57.42807 | 14.64059 | 40426 ft | 507 kts | 235° |
| 2026-04-21 06:38 | 57.39477 | 14.55025 | 40423 ft | 506 kts | 235° |
| 2026-04-21 06:38 | 57.34843 | 14.42512 | 40411 ft | 506 kts | 235° |
| 2026-04-21 06:39 | 57.30839 | 14.31748 | 40401 ft | 506 kts | 235° |
| 2026-04-21 06:39 | 57.27512 | 14.22842 | 40402 ft | 506 kts | 235° |
| 2026-04-21 06:40 | 57.23500 | 14.12147 | 40402 ft | 506 kts | 234° |
| 2026-04-21 06:40 | 57.18799 | 13.99675 | 40407 ft | 506 kts | 234° |
| 2026-04-21 06:41 | 57.14748 | 13.89152 | 40415 ft | 506 kts | 231° |
| 2026-04-21 06:41 | 57.11101 | 13.80651 | 40422 ft | 506 kts | 230° |
| 2026-04-21 06:42 | 57.06641 | 13.70594 | 40433 ft | 507 kts | 230° |
| 2026-04-21 06:42 | 57.02162 | 13.60592 | 40440 ft | 507 kts | 230° |
| 2026-04-21 06:43 | 56.97701 | 13.50647 | 40438 ft | 507 kts | 230° |
| 2026-04-21 06:43 | 56.93212 | 13.40657 | 40437 ft | 507 kts | 230° |
| 2026-04-21 06:44 | 56.88710 | 13.30675 | 40432 ft | 508 kts | 230° |
| 2026-04-21 06:44 | 56.84203 | 13.20722 | 40432 ft | 508 kts | 230° |
| 2026-04-21 06:45 | 56.79682 | 13.10783 | 40429 ft | 508 kts | 230° |
| 2026-04-21 06:45 | 56.75184 | 13.00934 | 40426 ft | 508 kts | 230° |
| 2026-04-21 06:46 | 56.70646 | 12.91039 | 40431 ft | 508 kts | 229° |
| 2026-04-21 06:46 | 56.66104 | 12.81176 | 40431 ft | 508 kts | 229° |
| 2026-04-21 06:47 | 56.61555 | 12.71338 | 40429 ft | 509 kts | 229° |
| 2026-04-21 06:47 | 56.56990 | 12.61508 | 40428 ft | 509 kts | 229° |
| 2026-04-21 06:48 | 56.52419 | 12.51703 | 40433 ft | 509 kts | 229° |
| 2026-04-21 06:48 | 56.47842 | 12.41925 | 40430 ft | 509 kts | 229° |
| 2026-04-21 06:49 | 56.43281 | 12.32223 | 40439 ft | 510 kts | 229° |
| 2026-04-21 06:49 | 56.38677 | 12.22468 | 40436 ft | 510 kts | 229° |
| 2026-04-21 06:50 | 56.34064 | 12.12733 | 40422 ft | 510 kts | 229° |
| 2026-04-21 06:50 | 56.29436 | 12.03009 | 40424 ft | 511 kts | 229° |
| 2026-04-21 06:51 | 56.24798 | 11.93302 | 40440 ft | 511 kts | 229° |
| 2026-04-21 06:51 | 56.20187 | 11.83689 | 40438 ft | 511 kts | 229° |
| 2026-04-21 06:52 | 56.15539 | 11.74038 | 40425 ft | 510 kts | 229° |
| 2026-04-21 06:52 | 56.10877 | 11.64399 | 40426 ft | 510 kts | 228° |
| 2026-04-21 06:53 | 56.06218 | 11.54803 | 40427 ft | 511 kts | 228° |
| 2026-04-21 06:53 | 56.01545 | 11.45218 | 40427 ft | 510 kts | 228° |
| 2026-04-21 06:54 | 55.96899 | 11.35726 | 40443 ft | 510 kts | 228° |
| 2026-04-21 06:54 | 55.92224 | 11.26212 | 40426 ft | 510 kts | 228° |
| 2026-04-21 06:55 | 55.87540 | 11.16718 | 40444 ft | 509 kts | 228° |
| 2026-04-21 06:55 | 55.82856 | 11.07262 | 40443 ft | 509 kts | 228° |
| 2026-04-21 06:56 | 55.78169 | 10.97837 | 40429 ft | 509 kts | 228° |
| 2026-04-21 06:56 | 55.73476 | 10.88436 | 40443 ft | 508 kts | 228° |
| 2026-04-21 06:57 | 55.68772 | 10.79052 | 40431 ft | 508 kts | 228° |
| 2026-04-21 06:57 | 55.64073 | 10.69713 | 40423 ft | 507 kts | 227° |
| 2026-04-21 06:58 | 55.59371 | 10.60406 | 40436 ft | 507 kts | 227° |
| 2026-04-21 06:58 | 55.54666 | 10.51128 | 40422 ft | 507 kts | 227° |
| 2026-04-21 06:59 | 55.49949 | 10.41863 | 40425 ft | 507 kts | 227° |
| 2026-04-21 06:59 | 55.45268 | 10.32703 | 40437 ft | 506 kts | 227° |
| 2026-04-21 07:00 | 55.40518 | 10.23446 | 40420 ft | 506 kts | 227° |
| 2026-04-21 07:00 | 55.35824 | 10.14332 | 40430 ft | 506 kts | 227° |
| 2026-04-21 07:01 | 55.31092 | 10.05178 | 40412 ft | 506 kts | 227° |
| 2026-04-21 07:01 | 55.23984 | 9.91495 | 40410 ft | 505 kts | 227° |
| 2026-04-21 07:02 | 55.19243 | 9.82411 | 40401 ft | 505 kts | 227° |
| 2026-04-21 07:02 | 55.14522 | 9.73401 | 40409 ft | 505 kts | 227° |
| 2026-04-21 07:03 | 55.09769 | 9.64364 | 40413 ft | 505 kts | 227° |
| 2026-04-21 07:03 | 55.05007 | 9.55345 | 40395 ft | 505 kts | 227° |
| 2026-04-21 07:04 | 55.00235 | 9.46338 | 40407 ft | 505 kts | 227° |
| 2026-04-21 07:04 | 54.95488 | 9.37413 | 40410 ft | 505 kts | 227° |
| 2026-04-21 07:05 | 54.90706 | 9.28458 | 40412 ft | 505 kts | 227° |
| 2026-04-21 07:05 | 54.85925 | 9.19535 | 40403 ft | 505 kts | 227° |
| 2026-04-21 07:06 | 54.80903 | 9.11018 | 40399 ft | 505 kts | 221° |
| 2026-04-21 07:06 | 54.75611 | 9.03010 | 40422 ft | 505 kts | 220° |
| 2026-04-21 07:07 | 54.70331 | 8.94989 | 40414 ft | 505 kts | 221° |
| 2026-04-21 07:07 | 54.65129 | 8.86946 | 40404 ft | 504 kts | 221° |
| 2026-04-21 07:08 | 54.59914 | 8.78839 | 40415 ft | 504 kts | 221° |
| 2026-04-21 07:08 | 54.54700 | 8.70756 | 40411 ft | 504 kts | 221° |
| 2026-04-21 07:09 | 54.49482 | 8.62704 | 40409 ft | 503 kts | 221° |
| 2026-04-21 07:09 | 54.44266 | 8.54688 | 40398 ft | 502 kts | 221° |
| 2026-04-21 07:10 | 54.39052 | 8.46706 | 40409 ft | 502 kts | 221° |
| 2026-04-21 07:10 | 54.33836 | 8.38746 | 40409 ft | 501 kts | 221° |
| 2026-04-21 07:11 | 54.28622 | 8.30819 | 40388 ft | 501 kts | 221° |
| 2026-04-21 07:11 | 54.23398 | 8.22904 | 40399 ft | 502 kts | 221° |
| 2026-04-21 07:12 | 54.18189 | 8.15040 | 40406 ft | 502 kts | 221° |
| 2026-04-21 07:12 | 54.12941 | 8.07145 | 40404 ft | 502 kts | 221° |
| 2026-04-21 07:13 | 54.07722 | 7.99320 | 40404 ft | 503 kts | 222° |
| 2026-04-21 07:13 | 54.02459 | 7.91456 | 40406 ft | 503 kts | 222° |
| 2026-04-21 07:14 | 53.97184 | 7.83602 | 40397 ft | 504 kts | 221° |
| 2026-04-21 07:14 | 53.91903 | 7.75768 | 40398 ft | 504 kts | 221° |
| 2026-04-21 07:15 | 53.86609 | 7.67943 | 40385 ft | 505 kts | 221° |
| 2026-04-21 07:15 | 53.81305 | 7.60128 | 40379 ft | 505 kts | 221° |
| 2026-04-21 07:16 | 53.76029 | 7.52380 | 40379 ft | 506 kts | 221° |
| 2026-04-21 07:16 | 53.70698 | 7.44582 | 40375 ft | 506 kts | 221° |
| 2026-04-21 07:17 | 53.65369 | 7.36816 | 40373 ft | 505 kts | 221° |
| 2026-04-21 07:17 | 53.60051 | 7.29088 | 40372 ft | 505 kts | 221° |
| 2026-04-21 07:18 | 53.54735 | 7.21390 | 40370 ft | 504 kts | 221° |
| 2026-04-21 07:18 | 53.49432 | 7.13739 | 40374 ft | 504 kts | 221° |
| 2026-04-21 07:19 | 53.44099 | 7.06072 | 40372 ft | 504 kts | 221° |
| 2026-04-21 07:19 | 53.38776 | 6.98440 | 40373 ft | 503 kts | 221° |
| 2026-04-21 07:20 | 53.33484 | 6.90884 | 40366 ft | 502 kts | 221° |
| 2026-04-21 07:20 | 53.28159 | 6.83304 | 40352 ft | 502 kts | 221° |
| 2026-04-21 07:21 | 53.22842 | 6.75761 | 40350 ft | 501 kts | 221° |
| 2026-04-21 07:21 | 53.17517 | 6.68232 | 40346 ft | 501 kts | 221° |
| 2026-04-21 07:22 | 53.12175 | 6.60756 | 40347 ft | 501 kts | 220° |
| 2026-04-21 07:22 | 53.06790 | 6.53396 | 40343 ft | 501 kts | 220° |
| 2026-04-21 07:23 | 53.01405 | 6.46064 | 40346 ft | 500 kts | 220° |
| 2026-04-21 07:23 | 52.96050 | 6.38776 | 40343 ft | 500 kts | 220° |
| 2026-04-21 07:24 | 52.90661 | 6.31452 | 40344 ft | 500 kts | 220° |
| 2026-04-21 07:24 | 52.85280 | 6.24156 | 40338 ft | 499 kts | 220° |
| 2026-04-21 07:25 | 52.79903 | 6.16895 | 40335 ft | 499 kts | 220° |
| 2026-04-21 07:25 | 52.74552 | 6.09692 | 40335 ft | 499 kts | 220° |
| 2026-04-21 07:26 | 52.69156 | 6.02452 | 40330 ft | 499 kts | 220° |
| 2026-04-21 07:26 | 52.63766 | 5.95243 | 40334 ft | 499 kts | 220° |
| 2026-04-21 07:27 | 52.58362 | 5.88042 | 40333 ft | 499 kts | 220° |
| 2026-04-21 07:27 | 52.52986 | 5.80901 | 40339 ft | 499 kts | 220° |
| 2026-04-21 07:28 | 52.47575 | 5.73735 | 40340 ft | 499 kts | 220° |
| 2026-04-21 07:28 | 52.42165 | 5.66593 | 40345 ft | 499 kts | 220° |
| 2026-04-21 07:29 | 52.37667 | 5.60674 | 40344 ft | 499 kts | 220° |
| 2026-04-21 07:29 | 52.31372 | 5.52419 | 40341 ft | 498 kts | 220° |
| 2026-04-21 07:30 | 52.25958 | 5.45343 | 40332 ft | 498 kts | 220° |
| 2026-04-21 07:30 | 52.21465 | 5.39488 | 40324 ft | 497 kts | 220° |
| 2026-04-21 07:31 | 52.16045 | 5.32444 | 40314 ft | 497 kts | 220° |
| 2026-04-21 07:31 | 52.10642 | 5.25446 | 40307 ft | 496 kts | 220° |
| 2026-04-21 07:32 | 52.05231 | 5.18460 | 40302 ft | 496 kts | 220° |
| 2026-04-21 07:32 | 51.99855 | 5.11541 | 40305 ft | 495 kts | 220° |
| 2026-04-21 07:33 | 51.94453 | 5.04609 | 40300 ft | 495 kts | 220° |
| 2026-04-21 07:33 | 51.89036 | 4.97690 | 40296 ft | 495 kts | 219° |
| 2026-04-21 07:34 | 51.83402 | 4.91233 | 40292 ft | 496 kts | 216° |
| 2026-04-21 07:34 | 51.77659 | 4.85051 | 40299 ft | 496 kts | 216° |
| 2026-04-21 07:35 | 51.71937 | 4.78831 | 40289 ft | 495 kts | 216° |
| 2026-04-21 07:35 | 51.66246 | 4.72569 | 40288 ft | 495 kts | 216° |
| 2026-04-21 07:36 | 51.60556 | 4.66294 | 40290 ft | 495 kts | 216° |
| 2026-04-21 07:36 | 51.54904 | 4.60079 | 40274 ft | 495 kts | 216° |
| 2026-04-21 07:37 | 51.49212 | 4.53845 | 40262 ft | 495 kts | 216° |
| 2026-04-21 07:37 | 51.43527 | 4.47639 | 40261 ft | 494 kts | 216° |
| 2026-04-21 07:38 | 51.37833 | 4.41443 | 40264 ft | 494 kts | 216° |
| 2026-04-21 07:38 | 51.32138 | 4.35265 | 40264 ft | 494 kts | 216° |
| 2026-04-21 07:39 | 51.26468 | 4.29133 | 40287 ft | 494 kts | 216° |
| 2026-04-21 07:39 | 51.20777 | 4.22995 | 40284 ft | 493 kts | 216° |
| 2026-04-21 07:40 | 51.14866 | 4.17540 | 40292 ft | 496 kts | 205° |
| 2026-04-21 07:40 | 51.08448 | 4.13437 | 40265 ft | 497 kts | 203° |
| 2026-04-21 07:41 | 51.01958 | 4.09593 | 40258 ft | 497 kts | 202° |
| 2026-04-21 07:41 | 50.95469 | 4.05776 | 40248 ft | 499 kts | 202° |
| 2026-04-21 07:42 | 50.92206 | 4.03845 | 40352 ft | 502 kts | 202° |
| 2026-04-21 07:42 | 50.88927 | 4.01899 | 40532 ft | 502 kts | 202° |
| 2026-04-21 07:42 | 50.85657 | 3.99958 | 40724 ft | 501 kts | 202° |
| 2026-04-21 07:42 | 50.82388 | 3.98019 | 40920 ft | 501 kts | 202° |
| 2026-04-21 07:43 | 50.79118 | 3.96081 | 41109 ft | 501 kts | 202° |
| 2026-04-21 07:43 | 50.75855 | 3.94150 | 41215 ft | 502 kts | 202° |
| 2026-04-21 07:43 | 50.69313 | 3.90289 | 41248 ft | 501 kts | 202° |
| 2026-04-21 07:44 | 50.62772 | 3.86441 | 41246 ft | 501 kts | 202° |
| 2026-04-21 07:44 | 50.56236 | 3.82603 | 41242 ft | 501 kts | 203° |
| 2026-04-21 07:45 | 50.49847 | 3.78385 | 41238 ft | 500 kts | 206° |
| 2026-04-21 07:45 | 50.43509 | 3.73916 | 41238 ft | 500 kts | 206° |
| 2026-04-21 07:46 | 50.37148 | 3.69501 | 41238 ft | 500 kts | 206° |
| 2026-04-21 07:46 | 50.30773 | 3.65161 | 41234 ft | 500 kts | 206° |
| 2026-04-21 07:47 | 50.24383 | 3.60853 | 41232 ft | 500 kts | 206° |
| 2026-04-21 07:47 | 50.17988 | 3.56556 | 41233 ft | 499 kts | 206° |
| 2026-04-21 07:48 | 50.11647 | 3.52303 | 41230 ft | 499 kts | 206° |
| 2026-04-21 07:48 | 50.05263 | 3.48032 | 41227 ft | 499 kts | 206° |
| 2026-04-21 07:49 | 49.98873 | 3.43769 | 41228 ft | 499 kts | 206° |
| 2026-04-21 07:49 | 49.92484 | 3.39520 | 41228 ft | 499 kts | 206° |
| 2026-04-21 07:50 | 49.86141 | 3.35314 | 41222 ft | 498 kts | 206° |
| 2026-04-21 07:50 | 49.79763 | 3.31096 | 41224 ft | 498 kts | 206° |
| 2026-04-21 07:51 | 49.73387 | 3.26892 | 41219 ft | 498 kts | 206° |
| 2026-04-21 07:51 | 49.67010 | 3.22699 | 41221 ft | 498 kts | 206° |
| 2026-04-21 07:52 | 49.60631 | 3.18515 | 41221 ft | 498 kts | 206° |
| 2026-04-21 07:52 | 49.54281 | 3.14268 | 41219 ft | 496 kts | 210° |
| 2026-04-21 07:53 | 49.48682 | 3.08306 | 41213 ft | 486 kts | 227° |
| 2026-04-21 07:53 | 49.44639 | 3.00221 | 41210 ft | 478 kts | 242° |
| 2026-04-21 07:54 | 49.41315 | 2.91380 | 41208 ft | 477 kts | 244° |
| 2026-04-21 07:54 | 49.38078 | 2.82475 | 41209 ft | 477 kts | 244° |
| 2026-04-21 07:55 | 49.34830 | 2.73669 | 41204 ft | 477 kts | 243° |
| 2026-04-21 07:55 | 49.31608 | 2.64786 | 41202 ft | 475 kts | 245° |
| 2026-04-21 07:56 | 49.28560 | 2.56013 | 41203 ft | 475 kts | 245° |
| 2026-04-21 07:56 | 49.25448 | 2.47094 | 41204 ft | 474 kts | 245° |
| 2026-04-21 07:57 | 49.22312 | 2.38212 | 41202 ft | 474 kts | 245° |
| 2026-04-21 07:57 | 49.19182 | 2.29407 | 41213 ft | 474 kts | 244° |
| 2026-04-21 07:58 | 49.15958 | 2.20609 | 41206 ft | 474 kts | 243° |
| 2026-04-21 07:58 | 49.12691 | 2.11855 | 41210 ft | 474 kts | 243° |
| 2026-04-21 07:59 | 49.09522 | 2.03102 | 41210 ft | 472 kts | 248° |
| 2026-04-21 07:59 | 49.06724 | 1.94050 | 41212 ft | 471 kts | 248° |
| 2026-04-21 08:00 | 49.03993 | 1.84971 | 41207 ft | 471 kts | 248° |
| 2026-04-21 08:00 | 49.01263 | 1.75886 | 41208 ft | 471 kts | 248° |
| 2026-04-21 08:01 | 48.98521 | 1.66827 | 41209 ft | 471 kts | 248° |
| 2026-04-21 08:02 | 48.94382 | 1.53239 | 41207 ft | 471 kts | 248° |
| 2026-04-21 08:02 | 48.91614 | 1.44198 | 41209 ft | 471 kts | 248° |
| 2026-04-21 08:03 | 48.88860 | 1.35233 | 41209 ft | 471 kts | 248° |
| 2026-04-21 08:03 | 48.86078 | 1.26212 | 41208 ft | 471 kts | 248° |
| 2026-04-21 08:04 | 48.83295 | 1.17217 | 41206 ft | 470 kts | 248° |
| 2026-04-21 08:04 | 48.80507 | 1.08240 | 41201 ft | 470 kts | 247° |
| 2026-04-21 08:05 | 48.77715 | 0.99282 | 41213 ft | 470 kts | 247° |
| 2026-04-21 08:05 | 48.74901 | 0.90355 | 41206 ft | 470 kts | 245° |
| 2026-04-21 08:06 | 48.71608 | 0.81756 | 41197 ft | 471 kts | 242° |
| 2026-04-21 08:06 | 48.68204 | 0.73340 | 41202 ft | 471 kts | 241° |
| 2026-04-21 08:07 | 48.64761 | 0.64914 | 41191 ft | 470 kts | 241° |
| 2026-04-21 08:07 | 48.61318 | 0.56491 | 41195 ft | 470 kts | 241° |
| 2026-04-21 08:08 | 48.57885 | 0.48096 | 41190 ft | 469 kts | 241° |
| 2026-04-21 08:08 | 48.54449 | 0.39714 | 41185 ft | 469 kts | 241° |
| 2026-04-21 08:09 | 48.51034 | 0.31409 | 41180 ft | 468 kts | 241° |
| 2026-04-21 08:09 | 48.47592 | 0.23066 | 41182 ft | 468 kts | 241° |
| 2026-04-21 08:10 | 48.44154 | 0.14759 | 41180 ft | 467 kts | 241° |
| 2026-04-21 08:10 | 48.40707 | 0.06454 | 41178 ft | 466 kts | 241° |
| 2026-04-21 08:11 | 48.37284 | -0.01764 | 41170 ft | 466 kts | 241° |
| 2026-04-21 08:11 | 48.33721 | -0.09910 | 41168 ft | 467 kts | 237° |
| 2026-04-21 08:12 | 48.29771 | -0.17707 | 41168 ft | 468 kts | 235° |
| 2026-04-21 08:12 | 48.25793 | -0.25442 | 41166 ft | 468 kts | 236° |
| 2026-04-21 08:13 | 48.21837 | -0.33184 | 41158 ft | 468 kts | 235° |
| 2026-04-21 08:13 | 48.17863 | -0.40910 | 41147 ft | 468 kts | 235° |
| 2026-04-21 08:14 | 48.13916 | -0.48591 | 41140 ft | 468 kts | 235° |
| 2026-04-21 08:14 | 48.09942 | -0.56324 | 41133 ft | 468 kts | 235° |
| 2026-04-21 08:15 | 48.05960 | -0.64055 | 41125 ft | 468 kts | 235° |
| 2026-04-21 08:15 | 48.01975 | -0.71766 | 41128 ft | 468 kts | 235° |
| 2026-04-21 08:16 | 47.97987 | -0.79463 | 41128 ft | 468 kts | 235° |
| 2026-04-21 08:16 | 47.94016 | -0.87106 | 41131 ft | 468 kts | 235° |
| 2026-04-21 08:17 | 47.90016 | -0.94780 | 41127 ft | 468 kts | 235° |
| 2026-04-21 08:17 | 47.86014 | -1.02438 | 41136 ft | 468 kts | 235° |
| 2026-04-21 08:18 | 47.82683 | -1.08795 | 41141 ft | 468 kts | 234° |
| 2026-04-21 08:18 | 47.77992 | -1.17721 | 41133 ft | 468 kts | 234° |
| 2026-04-21 08:19 | 47.73994 | -1.25306 | 41124 ft | 468 kts | 234° |
| 2026-04-21 08:19 | 47.69972 | -1.32915 | 41122 ft | 467 kts | 234° |
| 2026-04-21 08:20 | 47.66631 | -1.39219 | 41114 ft | 467 kts | 234° |
| 2026-04-21 08:20 | 47.62605 | -1.46798 | 41109 ft | 467 kts | 234° |
| 2026-04-21 08:21 | 47.58561 | -1.54344 | 41105 ft | 467 kts | 233° |
| 2026-04-21 08:21 | 47.54236 | -1.61542 | 41104 ft | 468 kts | 230° |
| 2026-04-21 08:22 | 47.49836 | -1.68560 | 41100 ft | 468 kts | 230° |
| 2026-04-21 08:22 | 47.45446 | -1.75646 | 41091 ft | 467 kts | 230° |
| 2026-04-21 08:23 | 47.41087 | -1.82756 | 41085 ft | 467 kts | 231° |
| 2026-04-21 08:23 | 47.36718 | -1.89835 | 41076 ft | 467 kts | 228° |
| 2026-04-21 08:24 | 47.31602 | -1.95825 | 41076 ft | 472 kts | 216° |
| 2026-04-21 08:24 | 47.26014 | -2.00962 | 41074 ft | 473 kts | 214° |
| 2026-04-21 08:25 | 47.20394 | -2.05915 | 41074 ft | 473 kts | 214° |
| 2026-04-21 08:25 | 47.14748 | -2.10891 | 41074 ft | 472 kts | 214° |
| 2026-04-21 08:26 | 47.09122 | -2.15875 | 41072 ft | 472 kts | 214° |
| 2026-04-21 08:26 | 47.03502 | -2.20859 | 41069 ft | 472 kts | 214° |
| 2026-04-21 08:27 | 46.97878 | -2.25835 | 41060 ft | 471 kts | 214° |
| 2026-04-21 08:27 | 46.92265 | -2.30787 | 41053 ft | 471 kts | 214° |
| 2026-04-21 08:28 | 46.86670 | -2.35710 | 41050 ft | 471 kts | 214° |
| 2026-04-21 08:28 | 46.81045 | -2.40657 | 41048 ft | 471 kts | 214° |
| 2026-04-21 08:29 | 46.75429 | -2.45579 | 41040 ft | 471 kts | 214° |
| 2026-04-21 08:29 | 46.69801 | -2.50499 | 41038 ft | 471 kts | 214° |
| 2026-04-21 08:30 | 46.64176 | -2.55405 | 41034 ft | 470 kts | 214° |
| 2026-04-21 08:30 | 46.58595 | -2.60262 | 41032 ft | 469 kts | 214° |
| 2026-04-21 08:31 | 46.52977 | -2.65140 | 41027 ft | 469 kts | 214° |
| 2026-04-21 08:31 | 46.47376 | -2.69992 | 41024 ft | 468 kts | 214° |
| 2026-04-21 08:32 | 46.41774 | -2.74831 | 41017 ft | 468 kts | 214° |
| 2026-04-21 08:32 | 46.36176 | -2.79656 | 41010 ft | 467 kts | 214° |
| 2026-04-21 08:33 | 46.30614 | -2.84439 | 41009 ft | 467 kts | 214° |
| 2026-04-21 08:33 | 46.25028 | -2.89236 | 40999 ft | 466 kts | 214° |
| 2026-04-21 08:34 | 46.19469 | -2.94077 | 40996 ft | 466 kts | 214° |
| 2026-04-21 08:34 | 46.13962 | -2.98883 | 40991 ft | 465 kts | 214° |
| 2026-04-21 08:35 | 46.08419 | -3.03701 | 40986 ft | 465 kts | 214° |
| 2026-04-21 08:35 | 46.02877 | -3.08498 | 40983 ft | 464 kts | 214° |
| 2026-04-21 08:36 | 45.97333 | -3.13283 | 40979 ft | 464 kts | 214° |
| 2026-04-21 08:36 | 45.91794 | -3.18055 | 40974 ft | 464 kts | 214° |
| 2026-04-21 08:37 | 45.86292 | -3.22783 | 40971 ft | 464 kts | 213° |
| 2026-04-21 08:37 | 45.80751 | -3.27534 | 40964 ft | 463 kts | 213° |
| 2026-04-21 08:38 | 45.75218 | -3.32267 | 40959 ft | 463 kts | 213° |
| 2026-04-21 08:38 | 45.69695 | -3.36979 | 40958 ft | 462 kts | 213° |
| 2026-04-21 08:39 | 45.64171 | -3.41682 | 40952 ft | 462 kts | 213° |
| 2026-04-21 08:39 | 45.58681 | -3.46346 | 40949 ft | 461 kts | 213° |
| 2026-04-21 08:40 | 45.53153 | -3.51031 | 40943 ft | 461 kts | 213° |
| 2026-04-21 08:40 | 45.47637 | -3.55695 | 40942 ft | 461 kts | 213° |
| 2026-04-21 08:41 | 45.42121 | -3.60349 | 40935 ft | 460 kts | 213° |
| 2026-04-21 08:41 | 45.36609 | -3.64988 | 40932 ft | 460 kts | 213° |
| 2026-04-21 08:42 | 45.31101 | -3.69613 | 40926 ft | 460 kts | 212° |
| 2026-04-21 08:42 | 45.25585 | -3.74233 | 40925 ft | 460 kts | 212° |
| 2026-04-21 08:43 | 45.20106 | -3.78813 | 40922 ft | 460 kts | 212° |
| 2026-04-21 08:43 | 45.14596 | -3.83409 | 40919 ft | 459 kts | 212° |
| 2026-04-21 08:44 | 45.09080 | -3.87998 | 40912 ft | 459 kts | 212° |
| 2026-04-21 08:44 | 45.03570 | -3.92573 | 40909 ft | 459 kts | 212° |
| 2026-04-21 08:45 | 44.98055 | -3.97142 | 40906 ft | 459 kts | 212° |
| 2026-04-21 08:45 | 44.92537 | -4.01702 | 40904 ft | 459 kts | 212° |
| 2026-04-21 08:46 | 44.87054 | -4.06223 | 40896 ft | 459 kts | 212° |
| 2026-04-21 08:46 | 44.81537 | -4.10763 | 40897 ft | 459 kts | 212° |
| 2026-04-21 08:47 | 44.76020 | -4.15292 | 40898 ft | 459 kts | 212° |
| 2026-04-21 08:47 | 44.70504 | -4.19810 | 40892 ft | 459 kts | 212° |
| 2026-04-21 08:48 | 44.64983 | -4.24322 | 40889 ft | 458 kts | 212° |
| 2026-04-21 08:48 | 44.59466 | -4.28821 | 40882 ft | 458 kts | 212° |
| 2026-04-21 08:49 | 44.53945 | -4.33314 | 40883 ft | 459 kts | 212° |
| 2026-04-21 08:49 | 44.48455 | -4.37771 | 40879 ft | 459 kts | 211° |
| 2026-04-21 08:50 | 44.42922 | -4.42253 | 40878 ft | 459 kts | 211° |
| 2026-04-21 08:50 | 44.37411 | -4.46770 | 40875 ft | 459 kts | 212° |
| 2026-04-21 08:51 | 44.31959 | -4.51421 | 40873 ft | 459 kts | 213° |
| 2026-04-21 08:51 | 44.26508 | -4.56075 | 40873 ft | 459 kts | 213° |
| 2026-04-21 08:52 | 44.21076 | -4.60674 | 40869 ft | 459 kts | 212° |
| 2026-04-21 08:52 | 44.15605 | -4.65279 | 40870 ft | 459 kts | 212° |
| 2026-04-21 08:53 | 44.10130 | -4.69874 | 40864 ft | 459 kts | 212° |
| 2026-04-21 08:53 | 44.04649 | -4.74466 | 40865 ft | 459 kts | 212° |
| 2026-04-21 08:54 | 43.99179 | -4.79039 | 40862 ft | 459 kts | 212° |
| 2026-04-21 08:54 | 43.93741 | -4.83576 | 40861 ft | 458 kts | 212° |
| 2026-04-21 08:55 | 43.88265 | -4.88135 | 40856 ft | 458 kts | 212° |
| 2026-04-21 08:55 | 43.82796 | -4.92678 | 40854 ft | 457 kts | 212° |
| 2026-04-21 08:56 | 43.77367 | -4.97178 | 40852 ft | 457 kts | 212° |
| 2026-04-21 08:56 | 43.71914 | -5.01689 | 40848 ft | 456 kts | 212° |
| 2026-04-21 08:57 | 43.66465 | -5.06185 | 40849 ft | 456 kts | 212° |
| 2026-04-21 08:57 | 43.61006 | -5.10682 | 40846 ft | 456 kts | 212° |
| 2026-04-21 08:58 | 43.55563 | -5.15154 | 40843 ft | 455 kts | 212° |
| 2026-04-21 08:58 | 43.50108 | -5.19628 | 40841 ft | 455 kts | 212° |
| 2026-04-21 08:59 | 43.44689 | -5.24062 | 40839 ft | 455 kts | 212° |
| 2026-04-21 08:59 | 43.39232 | -5.28517 | 40843 ft | 455 kts | 212° |
| 2026-04-21 09:00 | 43.33782 | -5.32957 | 40836 ft | 455 kts | 212° |
| 2026-04-21 09:00 | 43.28339 | -5.37385 | 40861 ft | 454 kts | 212° |
| 2026-04-21 09:01 | 43.22891 | -5.41808 | 40863 ft | 454 kts | 211° |
| 2026-04-21 09:01 | 43.17453 | -5.46212 | 40847 ft | 454 kts | 211° |
| 2026-04-21 09:02 | 43.12058 | -5.50570 | 40849 ft | 453 kts | 211° |
| 2026-04-21 09:02 | 43.06635 | -5.54942 | 40857 ft | 452 kts | 211° |
| 2026-04-21 09:03 | 42.98497 | -5.61488 | 40864 ft | 453 kts | 211° |
| 2026-04-21 09:03 | 42.93058 | -5.65852 | 40867 ft | 452 kts | 211° |
| 2026-04-21 09:04 | 42.87631 | -5.70196 | 40888 ft | 452 kts | 211° |
| 2026-04-21 09:04 | 42.82202 | -5.74533 | 40900 ft | 452 kts | 211° |
| 2026-04-21 09:05 | 42.77693 | -5.78129 | 40905 ft | 452 kts | 211° |
| 2026-04-21 09:05 | 42.71369 | -5.83162 | 40916 ft | 452 kts | 211° |
| 2026-04-21 09:06 | 42.66820 | -5.86775 | 40912 ft | 452 kts | 211° |
| 2026-04-21 09:06 | 42.60498 | -5.91785 | 40915 ft | 452 kts | 211° |
| 2026-04-21 09:07 | 42.55059 | -5.96086 | 40901 ft | 452 kts | 211° |
| 2026-04-21 09:07 | 42.50529 | -5.99662 | 40909 ft | 453 kts | 211° |
| 2026-04-21 09:08 | 42.45084 | -6.03951 | 40900 ft | 453 kts | 211° |
| 2026-04-21 09:08 | 42.38744 | -6.08935 | 40870 ft | 453 kts | 211° |
| 2026-04-21 09:09 | 42.34180 | -6.12516 | 40870 ft | 453 kts | 210° |
| 2026-04-21 09:09 | 42.28730 | -6.16784 | 40866 ft | 453 kts | 210° |
| 2026-04-21 09:10 | 42.23318 | -6.21013 | 40879 ft | 452 kts | 210° |
| 2026-04-21 09:10 | 42.17872 | -6.25261 | 40863 ft | 452 kts | 210° |
| 2026-04-21 09:11 | 42.12423 | -6.29502 | 40876 ft | 452 kts | 210° |
| 2026-04-21 09:11 | 42.06978 | -6.33731 | 40865 ft | 452 kts | 210° |
| 2026-04-21 09:12 | 42.01523 | -6.37960 | 40873 ft | 452 kts | 210° |
| 2026-04-21 09:12 | 41.96069 | -6.42180 | 40853 ft | 452 kts | 210° |
| 2026-04-21 09:13 | 41.90612 | -6.46394 | 40865 ft | 452 kts | 210° |
| 2026-04-21 09:13 | 41.85149 | -6.50603 | 40843 ft | 453 kts | 210° |
| 2026-04-21 09:14 | 41.79714 | -6.54783 | 40840 ft | 453 kts | 210° |
| 2026-04-21 09:14 | 41.74245 | -6.58981 | 40837 ft | 453 kts | 210° |
| 2026-04-21 09:15 | 41.68912 | -6.63447 | 40841 ft | 453 kts | 216° |
| 2026-04-21 09:15 | 41.63902 | -6.68491 | 40840 ft | 453 kts | 217° |
| 2026-04-21 09:16 | 41.58890 | -6.73583 | 40839 ft | 452 kts | 217° |
| 2026-04-21 09:16 | 41.53873 | -6.78680 | 40837 ft | 452 kts | 217° |
| 2026-04-21 09:17 | 41.48864 | -6.83761 | 40829 ft | 452 kts | 217° |
| 2026-04-21 09:17 | 41.43886 | -6.88802 | 40826 ft | 452 kts | 217° |
| 2026-04-21 09:18 | 41.38873 | -6.93868 | 40824 ft | 451 kts | 217° |
| 2026-04-21 09:18 | 41.33868 | -6.98917 | 40824 ft | 451 kts | 217° |
| 2026-04-21 09:19 | 41.28861 | -7.03956 | 40824 ft | 451 kts | 217° |
| 2026-04-21 09:19 | 41.23846 | -7.08995 | 40817 ft | 451 kts | 217° |
| 2026-04-21 09:20 | 41.18869 | -7.13986 | 40824 ft | 451 kts | 217° |
| 2026-04-21 09:20 | 41.13863 | -7.18996 | 40818 ft | 451 kts | 217° |
| 2026-04-21 09:21 | 41.08853 | -7.24000 | 40817 ft | 450 kts | 217° |
| 2026-04-21 09:21 | 41.03837 | -7.29000 | 40818 ft | 450 kts | 216° |
| 2026-04-21 09:22 | 40.98834 | -7.33978 | 40814 ft | 450 kts | 216° |
| 2026-04-21 09:22 | 40.93833 | -7.38943 | 40812 ft | 449 kts | 216° |
| 2026-04-21 09:23 | 40.88829 | -7.43903 | 40806 ft | 448 kts | 216° |
| 2026-04-21 09:23 | 40.83840 | -7.48838 | 40801 ft | 448 kts | 216° |
| 2026-04-21 09:24 | 40.78881 | -7.53733 | 40797 ft | 447 kts | 216° |
| 2026-04-21 09:24 | 40.73898 | -7.58643 | 40794 ft | 447 kts | 216° |
| 2026-04-21 09:25 | 40.68913 | -7.63546 | 40782 ft | 446 kts | 216° |
| 2026-04-21 09:25 | 40.63929 | -7.68439 | 40786 ft | 446 kts | 216° |
| 2026-04-21 09:26 | 40.58938 | -7.73327 | 40775 ft | 446 kts | 216° |
| 2026-04-21 09:26 | 40.53987 | -7.78169 | 40774 ft | 446 kts | 216° |
| 2026-04-21 09:27 | 40.48993 | -7.83043 | 40768 ft | 446 kts | 216° |
| 2026-04-21 09:27 | 40.43996 | -7.87911 | 40769 ft | 446 kts | 216° |
| 2026-04-21 09:28 | 40.39027 | -7.92742 | 40762 ft | 447 kts | 216° |
| 2026-04-21 09:28 | 40.34033 | -7.97588 | 40760 ft | 447 kts | 216° |
| 2026-04-21 09:29 | 40.29034 | -8.02432 | 40760 ft | 447 kts | 216° |
| 2026-04-21 09:29 | 40.24029 | -8.07271 | 40756 ft | 447 kts | 216° |
| 2026-04-21 09:30 | 40.19023 | -8.12102 | 40753 ft | 447 kts | 215° |
| 2026-04-21 09:30 | 40.16535 | -8.14500 | 40492 ft | 442 kts | 215° |
| 2026-04-21 09:30 | 40.14080 | -8.16864 | 39880 ft | 436 kts | 215° |
| 2026-04-21 09:31 | 40.11641 | -8.19210 | 39075 ft | 435 kts | 215° |
| 2026-04-21 09:31 | 40.09200 | -8.21558 | 38259 ft | 435 kts | 214° |
| 2026-04-21 09:31 | 40.06768 | -8.23893 | 37264 ft | 433 kts | 214° |
| 2026-04-21 09:31 | 40.04375 | -8.26189 | 36341 ft | 432 kts | 214° |
| 2026-04-21 09:32 | 40.01935 | -8.28468 | 35445 ft | 429 kts | 211° |
| 2026-04-21 09:32 | 39.99262 | -8.30129 | 34558 ft | 420 kts | 195° |
| 2026-04-21 09:32 | 39.96427 | -8.30844 | 33715 ft | 412 kts | 187° |
| 2026-04-21 09:32 | 39.93606 | -8.31275 | 32752 ft | 404 kts | 187° |
| 2026-04-21 09:33 | 39.90833 | -8.31676 | 31832 ft | 398 kts | 187° |
| 2026-04-21 09:33 | 39.88096 | -8.32079 | 30933 ft | 393 kts | 187° |
| 2026-04-21 09:33 | 39.86667 | -8.32292 | 30474 ft | 390 kts | 187° |
| 2026-04-21 09:33 | 39.84069 | -8.32683 | 29547 ft | 385 kts | 187° |
| 2026-04-21 09:34 | 39.81448 | -8.33080 | 28506 ft | 381 kts | 187° |
| 2026-04-21 09:34 | 39.78837 | -8.33477 | 27485 ft | 373 kts | 187° |
| 2026-04-21 09:34 | 39.76296 | -8.33864 | 26484 ft | 362 kts | 187° |
| 2026-04-21 09:34 | 39.73822 | -8.34241 | 25603 ft | 352 kts | 187° |
| 2026-04-21 09:35 | 39.71441 | -8.34637 | 24968 ft | 336 kts | 189° |
| 2026-04-21 09:35 | 39.69271 | -8.35531 | 24630 ft | 320 kts | 205° |
| 2026-04-21 09:35 | 39.67474 | -8.37220 | 24647 ft | 324 kts | 221° |
| 2026-04-21 09:35 | 39.66028 | -8.39393 | 24475 ft | 321 kts | 227° |
| 2026-04-21 09:36 | 39.64659 | -8.41716 | 23972 ft | 325 kts | 228° |
| 2026-04-21 09:36 | 39.63294 | -8.44064 | 23508 ft | 325 kts | 227° |
| 2026-04-21 09:36 | 39.61934 | -8.46394 | 22962 ft | 321 kts | 227° |
| 2026-04-21 09:36 | 39.60587 | -8.48688 | 22210 ft | 318 kts | 227° |
| 2026-04-21 09:37 | 39.59249 | -8.50944 | 21321 ft | 313 kts | 227° |
| 2026-04-21 09:37 | 39.57730 | -8.52902 | 20429 ft | 304 kts | 214° |
| 2026-04-21 09:37 | 39.55982 | -8.54399 | 19587 ft | 299 kts | 210° |
| 2026-04-21 09:37 | 39.54226 | -8.55768 | 19138 ft | 290 kts | 209° |
| 2026-04-21 09:38 | 39.52509 | -8.57102 | 18950 ft | 291 kts | 210° |
| 2026-04-21 09:38 | 39.50774 | -8.58451 | 18785 ft | 289 kts | 210° |
| 2026-04-21 09:38 | 39.48984 | -8.59582 | 18421 ft | 287 kts | 200° |
| 2026-04-21 09:38 | 39.47045 | -8.60386 | 17683 ft | 298 kts | 197° |
| 2026-04-21 09:39 | 39.45013 | -8.61099 | 16879 ft | 307 kts | 196° |
| 2026-04-21 09:39 | 39.42917 | -8.61809 | 16046 ft | 314 kts | 196° |
| 2026-04-21 09:39 | 39.40799 | -8.62519 | 15017 ft | 313 kts | 196° |
| 2026-04-21 09:39 | 39.38697 | -8.63218 | 13800 ft | 311 kts | 196° |
| 2026-04-21 09:40 | 39.36613 | -8.63912 | 12492 ft | 307 kts | 195° |
| 2026-04-21 09:40 | 39.34575 | -8.64595 | 11178 ft | 306 kts | 194° |
| 2026-04-21 09:40 | 39.32539 | -8.65275 | 10537 ft | 286 kts | 193° |
| 2026-04-21 09:40 | 39.30727 | -8.65875 | 10363 ft | 259 kts | 193° |
| 2026-04-21 09:41 | 39.29068 | -8.66425 | 10223 ft | 236 kts | 193° |
| 2026-04-21 09:41 | 39.27497 | -8.66943 | 10105 ft | 230 kts | 193° |
| 2026-04-21 09:41 | 39.25963 | -8.67448 | 9985 ft | 225 kts | 192° |
| 2026-04-21 09:41 | 39.24443 | -8.67948 | 9874 ft | 226 kts | 192° |
| 2026-04-21 09:42 | 39.22914 | -8.68451 | 9730 ft | 227 kts | 192° |
| 2026-04-21 09:42 | 39.21330 | -8.68970 | 9641 ft | 242 kts | 192° |
| 2026-04-21 09:42 | 39.19688 | -8.69511 | 9470 ft | 243 kts | 192° |
| 2026-04-21 09:42 | 39.18050 | -8.70051 | 9082 ft | 242 kts | 192° |
| 2026-04-21 09:43 | 39.16450 | -8.70580 | 8928 ft | 231 kts | 192° |
| 2026-04-21 09:43 | 39.14948 | -8.71076 | 8792 ft | 221 kts | 192° |
| 2026-04-21 09:43 | 39.13469 | -8.71564 | 8655 ft | 212 kts | 191° |
| 2026-04-21 09:43 | 39.12067 | -8.72023 | 8541 ft | 210 kts | 191° |
| 2026-04-21 09:44 | 39.10646 | -8.72490 | 8379 ft | 210 kts | 191° |
| 2026-04-21 09:44 | 39.09230 | -8.72956 | 8178 ft | 209 kts | 191° |
| 2026-04-21 09:44 | 39.07829 | -8.73481 | 7983 ft | 211 kts | 197° |
| 2026-04-21 09:44 | 39.06573 | -8.74497 | 7808 ft | 219 kts | 217° |
| 2026-04-21 09:45 | 39.05722 | -8.76186 | 7769 ft | 232 kts | 238° |
| 2026-04-21 09:45 | 39.05084 | -8.78089 | 7456 ft | 232 kts | 236° |
| 2026-04-21 09:45 | 39.04411 | -8.79954 | 7341 ft | 226 kts | 236° |
| 2026-04-21 09:45 | 39.03773 | -8.81783 | 7095 ft | 225 kts | 236° |
| 2026-04-21 09:46 | 39.03129 | -8.83663 | 6571 ft | 236 kts | 237° |
| 2026-04-21 09:46 | 39.02464 | -8.85645 | 6003 ft | 244 kts | 238° |
| 2026-04-21 09:46 | 39.01811 | -8.87653 | 5503 ft | 242 kts | 238° |
| 2026-04-21 09:46 | 39.01179 | -8.89615 | 4998 ft | 239 kts | 238° |
| 2026-04-21 09:47 | 39.00549 | -8.91578 | 4528 ft | 236 kts | 238° |
| 2026-04-21 09:47 | 38.99923 | -8.93515 | 4023 ft | 234 kts | 238° |
| 2026-04-21 09:47 | 38.99301 | -8.95432 | 3522 ft | 231 kts | 239° |
| 2026-04-21 09:47 | 38.98689 | -8.97318 | 3118 ft | 225 kts | 240° |
| 2026-04-21 09:48 | 38.98110 | -8.99119 | 2990 ft | 208 kts | 240° |
| 2026-04-21 09:48 | 38.97593 | -9.00752 | 2987 ft | 186 kts | 239° |
| 2026-04-21 09:48 | 38.97140 | -9.02193 | 2987 ft | 159 kts | 238° |
| 2026-04-21 09:48 | 38.96605 | -9.03317 | 2983 ft | 138 kts | 216° |
| 2026-04-21 09:49 | 38.95847 | -9.03986 | 2992 ft | 130 kts | 201° |
| 2026-04-21 09:49 | 38.95032 | -9.04478 | 2990 ft | 129 kts | 199° |
| 2026-04-21 09:49 | 38.94210 | -9.04947 | 2987 ft | 130 kts | 198° |
| 2026-04-21 09:49 | 38.93385 | -9.05394 | 2961 ft | 128 kts | 198° |
| 2026-04-21 09:50 | 38.92565 | -9.05837 | 2998 ft | 127 kts | 198° |
| 2026-04-21 09:50 | 38.92290 | -9.05986 | 2990 ft | 127 kts | 198° |
| 2026-04-21 09:50 | 38.90204 | -9.07109 | 2673 ft | 117 kts | 198° |
| 2026-04-21 09:51 | 38.89458 | -9.07511 | 2510 ft | 117 kts | 199° |
| 2026-04-21 09:51 | 38.88703 | -9.07919 | 2356 ft | 118 kts | 199° |
| 2026-04-21 09:51 | 38.87948 | -9.08324 | 2187 ft | 117 kts | 199° |
| 2026-04-21 09:51 | 38.87196 | -9.08728 | 2039 ft | 117 kts | 200° |
| 2026-04-21 09:52 | 38.86441 | -9.09134 | 1868 ft | 117 kts | 200° |
| 2026-04-21 09:52 | 38.85695 | -9.09533 | 1721 ft | 116 kts | 201° |
| 2026-04-21 09:52 | 38.84954 | -9.09935 | 1591 ft | 118 kts | 201° |
| 2026-04-21 09:52 | 38.84195 | -9.10342 | 1415 ft | 118 kts | 201° |
| 2026-04-21 09:53 | 38.83438 | -9.10749 | 1260 ft | 117 kts | 202° |
| 2026-04-21 09:53 | 38.82680 | -9.11158 | 1115 ft | 120 kts | 200° |
| 2026-04-21 09:53 | 38.81920 | -9.11561 | 906 ft | 117 kts | 203° |
| 2026-04-21 09:53 | 38.81166 | -9.11965 | 784 ft | 119 kts | 202° |
| 2026-04-21 09:54 | 38.80388 | -9.12396 | 636 ft | 124 kts | 204° |
| 2026-04-21 09:54 | 38.79586 | -9.12821 | 458 ft | 121 kts | 201° |
| 2026-04-21 09:54 | 38.78827 | -9.13222 | 363 ft | 113 kts | 202° |
| 2026-04-21 09:54 | 38.78268 | -9.13521 | 359 ft | 49 kts | 202° |
| 2026-04-21 09:55 | 38.78028 | -9.13651 | 357 ft | 32 kts | 202° |
| 2026-04-21 09:55 | 38.77901 | -9.13718 | 361 ft | 28 kts | 202° |
| 2026-04-21 09:55 | 38.77667 | -9.13762 | 353 ft | 23 kts | 178° |
| 2026-04-21 09:55 | 38.77529 | -9.13757 | 358 ft | 20 kts | 178° |
| 2026-04-21 09:56 | 38.77415 | -9.13755 | 361 ft | 16 kts | 187° |
| 2026-04-21 09:56 | 38.77552 | -9.13152 | 362 ft | 0 kts | 79° |